Time;durP1;ratioP1;P1;durP2;ratioP2;P2;SDS_P1;SDS_P2;PMS_P1;PMS_P2;Temp;Humidity;BMP_temperature;BMP_pressure;BME280_temperature;BME280_humidity;BME280_pressure;Samples;Min_cycle;Max_cycle;Signal;HPM_P1;HPM_P2
2023/03/04 00:00:06;;;;;;;67.30;29.67;;;;;;;0.14;100.00;94270.28;5009492;28;20042;-60
2023/03/04 00:02:32;;;;;;;68.30;29.70;;;;;;;0.07;100.00;94272.81;5025641;28;20045;-60
2023/03/04 00:04:59;;;;;;;73.90;31.15;;;;;;;0.01;100.00;94266.84;5030383;28;20056;-60
2023/03/04 00:07:26;;;;;;;71.65;30.83;;;;;;;-0.01;100.00;94272.56;5030365;28;20046;-60
2023/03/04 00:09:52;;;;;;;67.38;30.63;;;;;;;-0.06;100.00;94270.13;5029873;28;20045;-60
2023/03/04 00:12:19;;;;;;;71.05;30.35;;;;;;;-0.09;100.00;94272.72;5030438;28;20051;-61
2023/03/04 00:14:46;;;;;;;63.47;28.17;;;;;;;-0.18;100.00;94267.44;5029889;28;20044;-59
2023/03/04 00:17:12;;;;;;;67.13;28.90;;;;;;;-0.30;100.00;94267.41;5012368;28;20095;-59
2023/03/04 00:19:39;;;;;;;66.80;29.10;;;;;;;-0.35;100.00;94273.06;5029639;28;20390;-59
2023/03/04 00:22:06;;;;;;;68.82;28.42;;;;;;;-0.38;100.00;94269.13;5030238;28;20049;-61
2023/03/04 00:24:33;;;;;;;67.53;28.25;;;;;;;-0.41;100.00;94267.88;5029745;28;20049;-60
2023/03/04 00:27:00;;;;;;;66.37;28.37;;;;;;;-0.41;100.00;94273.25;5030156;28;20041;-60
2023/03/04 00:29:27;;;;;;;65.22;27.52;;;;;;;-0.48;100.00;94270.34;5028646;28;20062;-59
2023/03/04 00:31:54;;;;;;;62.28;28.10;;;;;;;-0.52;100.00;94274.84;5029409;28;20037;-59
2023/03/04 00:34:21;;;;;;;65.38;27.73;;;;;;;-0.52;100.00;94274.84;5030104;28;20072;-59
2023/03/04 00:36:47;;;;;;;81.38;34.03;;;;;;;-0.58;100.00;94278.09;5028224;28;20072;-60
2023/03/04 00:39:15;;;;;;;67.67;28.30;;;;;;;-0.58;100.00;94278.09;5029984;28;20037;-60
2023/03/04 00:41:42;;;;;;;67.70;28.10;;;;;;;-0.65;100.00;94282.13;5029622;28;20102;-60
2023/03/04 00:44:08;;;;;;;69.00;29.50;;;;;;;-0.72;100.00;94281.13;5029937;28;20042;-59
2023/03/04 00:46:35;;;;;;;70.00;29.15;;;;;;;-0.76;100.00;94280.22;5029578;28;20048;-59
2023/03/04 00:49:02;;;;;;;73.38;30.02;;;;;;;-0.84;100.00;94279.97;5029885;28;20049;-61
2023/03/04 00:51:28;;;;;;;96.60;36.17;;;;;;;-0.89;100.00;94282.09;5029831;28;20049;-60
2023/03/04 00:53:55;;;;;;;102.00;36.85;;;;;;;-0.94;100.00;94277.72;5029422;28;20067;-60
2023/03/04 00:56:25;;;;;;;103.68;37.53;;;;;;;-0.94;100.00;94272.31;5028413;28;20045;-61
2023/03/04 00:58:51;;;;;;;110.43;38.55;;;;;;;-1.00;100.00;94276.34;5011869;28;20436;-60
2023/03/04 01:01:18;;;;;;;216.35;78.63;;;;;;;-1.01;100.00;94280.16;5029683;28;20045;-59
2023/03/04 01:03:45;;;;;;;136.77;48.57;;;;;;;-1.06;100.00;94275.75;5029293;28;20049;-60
2023/03/04 01:06:12;;;;;;;106.95;39.25;;;;;;;-1.10;100.00;94276.78;5029548;28;20452;-61
2023/03/04 01:08:39;;;;;;;83.80;33.00;;;;;;;-1.14;100.00;94279.34;5029488;28;20055;-62
2023/03/04 01:11:06;;;;;;;81.07;32.53;;;;;;;-1.16;100.00;94272.72;5029719;28;20037;-60
2023/03/04 01:13:33;;;;;;;70.25;29.83;;;;;;;-1.21;100.00;94282.56;5029282;28;20394;-60
2023/03/04 01:16:00;;;;;;;76.33;29.83;;;;;;;-1.25;100.00;94278.16;5020847;28;20050;-60
2023/03/04 01:18:27;;;;;;;70.13;28.63;;;;;;;-1.26;100.00;94280.06;5021794;28;20046;-60
2023/03/04 01:20:54;;;;;;;70.28;29.73;;;;;;;-1.28;100.00;94274.22;5028992;28;20694;-60
2023/03/04 01:23:20;;;;;;;72.55;29.38;;;;;;;-1.34;100.00;94269.41;5029559;28;20049;-59
2023/03/04 01:25:47;;;;;;;71.65;29.60;;;;;;;-1.35;100.00;94262.44;5029100;28;20491;-60
2023/03/04 01:28:14;;;;;;;67.33;29.00;;;;;;;-1.38;100.00;94261.19;5029957;28;20040;-60
2023/03/04 01:30:40;;;;;;;70.72;29.00;;;;;;;-1.40;100.00;94260.72;5032564;28;20102;-59
2023/03/04 01:33:07;;;;;;;69.60;29.63;;;;;;;-1.43;100.00;94264.06;5012220;28;20038;-62
2023/03/04 01:35:34;;;;;;;69.78;28.90;;;;;;;-1.51;100.00;94254.97;5028980;28;20041;-61
2023/03/04 01:38:00;;;;;;;65.30;28.38;;;;;;;-1.61;100.00;94258.84;5033072;28;20091;-60
2023/03/04 01:40:27;;;;;;;71.00;29.47;;;;;;;-1.61;100.00;94249.97;5033191;28;20052;-60
2023/03/04 01:42:54;;;;;;;122.90;48.92;;;;;;;-1.63;100.00;94250.34;5032647;28;20114;-60
2023/03/04 01:45:21;;;;;;;98.40;41.03;;;;;;;-1.67;100.00;94248.59;5033077;28;20113;-58
2023/03/04 01:47:48;;;;;;;72.85;30.13;;;;;;;-1.72;100.00;94246.91;5032584;28;20067;-59
2023/03/04 01:50:20;;;;;;;68.00;29.10;;;;;;;-1.72;100.00;94246.13;5033011;28;20041;-60
2023/03/04 01:52:47;;;;;;;70.43;29.03;;;;;;;-1.77;100.00;94240.94;5032389;28;20041;-58
2023/03/04 01:55:16;;;;;;;67.93;28.63;;;;;;;-1.79;100.00;94233.22;5032786;28;20046;-58
2023/03/04 01:57:43;;;;;;;70.28;28.20;;;;;;;-1.90;100.00;94226.66;5032031;28;20106;-59
2023/03/04 02:00:31;;;;;;;70.43;28.52;;;;;;;-1.88;100.00;94235.97;5032818;28;20037;-59
2023/03/04 02:03:03;;;;;;;70.00;29.00;;;;;;;-1.91;100.00;94233.13;5031769;28;20567;-59
2023/03/04 02:05:30;;;;;;;72.20;29.20;;;;;;;-1.95;100.00;94229.53;5032642;28;20060;-58
2023/03/04 02:07:58;;;;;;;75.50;29.73;;;;;;;-1.96;100.00;94227.97;5031633;28;20364;-58
2023/03/04 02:10:25;;;;;;;70.55;28.00;;;;;;;-1.96;100.00;94227.97;5032457;28;20522;-58
2023/03/04 02:12:52;;;;;;;68.07;28.48;;;;;;;-2.01;100.00;94221.66;5037366;28;20110;-58
2023/03/04 02:15:19;;;;;;;72.38;28.70;;;;;;;-2.04;100.00;94224.22;5038447;28;20111;-58
2023/03/04 02:17:46;;;;;;;68.63;28.23;;;;;;;-2.01;100.00;94226.28;5021847;28;20041;-58
2023/03/04 02:20:29;;;;;;;72.78;30.23;;;;;;;-2.07;100.00;94223.00;5032474;28;20052;-60
2023/03/04 02:23:19;;;;;;;73.95;29.85;;;;;;;-2.08;100.00;94221.41;5019726;28;20390;-59
2023/03/04 02:26:11;;;;;;;71.72;29.13;;;;;;;-2.10;100.00;94215.56;5032136;28;20491;-59
2023/03/04 02:28:38;;;;;;;73.93;29.38;;;;;;;-2.12;100.00;94217.00;5023821;28;20469;-60
2023/03/04 02:31:05;;;;;;;70.50;28.73;;;;;;;-2.16;100.00;94213.41;5032088;28;20056;-59
2023/03/04 02:33:32;;;;;;;77.82;29.60;;;;;;;-2.19;100.00;94209.47;5031871;28;20045;-60
2023/03/04 02:35:58;;;;;;;69.20;29.58;;;;;;;-2.21;100.00;94212.47;5032154;28;20037;-60
2023/03/04 02:38:25;;;;;;;76.78;30.02;;;;;;;-2.25;100.00;94208.88;5032143;28;20053;-59
2023/03/04 02:40:54;;;;;;;71.82;28.75;;;;;;;-2.26;100.00;94209.97;5030476;28;20041;-60
2023/03/04 02:43:21;;;;;;;69.77;29.03;;;;;;;-2.27;100.00;94203.03;5031827;28;20457;-59
2023/03/04 02:45:49;;;;;;;72.30;29.27;;;;;;;-2.27;100.00;94213.00;5029312;28;20091;-60
2023/03/04 02:48:20;;;;;;;75.82;30.77;;;;;;;-2.30;100.00;94208.28;5016201;28;20405;-60
2023/03/04 02:50:50;;;;;;;71.90;30.02;;;;;;;-2.32;100.00;94213.19;5031624;28;20049;-61
2023/03/04 02:53:19;;;;;;;71.97;28.90;;;;;;;-2.37;100.00;94218.75;5032171;28;20483;-60
2023/03/04 02:55:47;;;;;;;75.17;29.40;;;;;;;-2.37;100.00;94203.44;5031424;28;20045;-61
2023/03/04 02:58:14;;;;;;;69.25;29.65;;;;;;;-2.39;100.00;94204.84;5031641;28;20041;-62
2023/03/04 03:00:40;;;;;;;73.10;29.60;;;;;;;-2.45;100.00;94210.44;5031487;28;20409;-61
2023/03/04 03:03:07;;;;;;;73.60;29.63;;;;;;;-2.47;100.00;94207.28;5031667;28;20421;-62
2023/03/04 03:05:35;;;;;;;71.05;29.08;;;;;;;-2.50;100.00;94218.66;5031375;28;20413;-61
2023/03/04 03:08:03;;;;;;;71.17;29.43;;;;;;;-2.52;100.00;94202.06;5031655;28;20401;-60
2023/03/04 03:10:29;;;;;;;69.95;29.15;;;;;;;-2.53;100.00;94213.97;5031680;28;20087;-61
2023/03/04 03:12:56;;;;;;;73.38;29.92;;;;;;;-2.54;100.00;94212.38;5030543;28;21518;-60
2023/03/04 03:15:23;;;;;;;72.80;28.77;;;;;;;-2.58;100.00;94208.75;5031195;28;20057;-60
2023/03/04 03:17:50;;;;;;;72.40;30.23;;;;;;;-2.61;100.00;94214.78;5031077;28;20042;-61
2023/03/04 03:20:18;;;;;;;73.77;29.47;;;;;;;-2.61;100.00;94209.41;5031262;28;20089;-60
2023/03/04 03:22:45;;;;;;;71.45;29.15;;;;;;;-2.63;100.00;94212.41;5042718;28;20385;-61
2023/03/04 03:25:13;;;;;;;75.80;30.58;;;;;;;-2.62;100.00;94215.88;5032877;28;20083;-61
2023/03/04 03:27:40;;;;;;;72.63;29.60;;;;;;;-2.65;100.00;94208.50;5029591;28;20041;-62
2023/03/04 03:30:09;;;;;;;102.45;40.95;;;;;;;-2.65;100.00;94211.19;5030818;28;20044;-61
2023/03/04 03:32:36;;;;;;;82.17;32.40;;;;;;;-2.78;100.00;94214.88;5030762;28;20413;-61
2023/03/04 03:35:03;;;;;;;77.13;31.27;;;;;;;-2.78;100.00;94217.56;5030939;28;20041;-60
2023/03/04 03:37:30;;;;;;;77.00;30.00;;;;;;;-2.76;100.00;94213.44;5031156;28;20042;-60
2023/03/04 03:39:57;;;;;;;75.35;29.85;;;;;;;-2.79;100.00;94216.00;5030212;28;20810;-60
2023/03/04 03:42:23;;;;;;;77.22;30.33;;;;;;;-2.82;100.00;94215.53;5031338;28;20582;-61
2023/03/04 03:44:50;;;;;;;74.00;29.63;;;;;;;-2.83;100.00;94219.31;5030771;28;20464;-60
2023/03/04 03:47:17;;;;;;;73.20;29.85;;;;;;;-2.86;100.00;94211.91;5016731;28;20041;-60
2023/03/04 03:49:43;;;;;;;76.97;30.75;;;;;;;-2.89;100.00;94204.50;5030505;28;20049;-60
2023/03/04 03:52:10;;;;;;;75.78;29.80;;;;;;;-2.91;100.00;94206.72;5030252;28;20049;-61
2023/03/04 03:54:37;;;;;;;76.20;30.42;;;;;;;-2.91;100.00;94205.94;5030044;28;20110;-60
2023/03/04 03:57:04;;;;;;;75.83;30.13;;;;;;;-2.90;100.00;94218.25;5027171;28;20046;-60
2023/03/04 03:59:30;;;;;;;77.00;31.17;;;;;;;-2.93;100.00;94211.63;5010656;28;20045;-58
2023/03/04 04:01:57;;;;;;;78.50;30.60;;;;;;;-3.02;100.00;94206.31;5016889;28;20410;-60
2023/03/04 04:04:24;;;;;;;74.45;28.50;;;;;;;-3.02;100.00;94213.53;5022704;28;20043;-61
2023/03/04 04:06:51;;;;;;;73.00;28.30;;;;;;;-3.03;100.00;94218.13;5030143;28;20103;-62
2023/03/04 04:09:17;;;;;;;74.50;29.23;;;;;;;-3.04;100.00;94213.06;5030360;28;20071;-61
2023/03/04 04:11:44;;;;;;;76.65;29.52;;;;;;;-3.10;100.00;94215.19;5029988;28;20046;-59
2023/03/04 04:14:13;;;;;;;74.13;29.63;;;;;;;-3.11;100.00;94213.59;5030177;28;20513;-60
2023/03/04 04:16:40;;;;;;;76.50;29.42;;;;;;;-3.11;100.00;94213.59;5029949;28;20049;-60
2023/03/04 04:19:07;;;;;;;71.80;28.92;;;;;;;-3.10;100.00;94217.06;5030266;28;20045;-59
2023/03/04 04:21:33;;;;;;;70.87;28.50;;;;;;;-3.13;100.00;94213.13;5029859;28;20044;-61
2023/03/04 04:24:00;;;;;;;73.93;29.50;;;;;;;-3.15;100.00;94215.34;5030185;28;20049;-59
2023/03/04 04:26:27;;;;;;;71.55;29.20;;;;;;;-3.19;100.00;94210.94;5030232;28;20055;-60
2023/03/04 04:28:53;;;;;;;76.78;29.63;;;;;;;-3.21;100.00;94222.00;5029644;28;20042;-60
2023/03/04 04:31:20;;;;;;;70.63;28.42;;;;;;;-3.19;100.00;94213.63;5029935;28;20041;-59
2023/03/04 04:33:47;;;;;;;76.43;28.93;;;;;;;-3.24;100.00;94214.56;5029684;28;20061;-59
2023/03/04 04:36:15;;;;;;;75.40;29.50;;;;;;;-3.26;100.00;94227.53;5030143;28;20049;-60
2023/03/04 04:38:42;;;;;;;74.18;29.42;;;;;;;-3.27;100.00;94218.69;5029664;28;20072;-59
2023/03/04 04:41:18;;;;;;;74.45;28.73;;;;;;;-3.28;100.00;94224.38;5029972;28;20098;-60
2023/03/04 04:43:45;;;;;;;76.82;29.88;;;;;;;-3.35;100.00;94226.78;5029844;28;20047;-61
2023/03/04 04:46:11;;;;;;;74.83;29.97;;;;;;;-3.37;100.00;94227.09;5029916;28;20053;-59
2023/03/04 04:48:38;;;;;;;83.45;32.22;;;;;;;-3.37;100.00;94227.09;5029405;28;20045;-59
2023/03/04 04:51:05;;;;;;;86.03;33.05;;;;;;;-3.40;100.00;94233.09;5029862;28;20041;-60
2023/03/04 04:53:32;;;;;;;87.55;33.53;;;;;;;-3.40;100.00;94227.75;5029471;28;20075;-60
2023/03/04 04:55:59;;;;;;;88.15;33.75;;;;;;;-3.42;100.00;94232.59;5042167;28;20051;-60
2023/03/04 04:58:25;;;;;;;84.33;32.20;;;;;;;-3.45;100.00;94234.03;5015038;28;20048;-60
2023/03/04 05:00:55;;;;;;;87.50;33.20;;;;;;;-3.45;100.00;94234.03;5011906;28;20053;-60
2023/03/04 05:03:22;;;;;;;85.18;32.08;;;;;;;-3.44;100.00;94232.13;5030455;28;20057;-60
2023/03/04 05:05:49;;;;;;;90.03;32.92;;;;;;;-3.46;100.00;94228.97;5033322;28;20486;-59
2023/03/04 05:08:15;;;;;;;96.38;34.88;;;;;;;-3.46;100.00;94231.66;5034075;28;20042;-60
2023/03/04 05:10:42;;;;;;;99.63;35.23;;;;;;;-3.47;100.00;94225.53;5032913;28;20075;-61
2023/03/04 05:13:09;;;;;;;99.50;35.05;;;;;;;-3.47;100.00;94220.16;5033872;28;20514;-60
2023/03/04 05:15:37;;;;;;;87.95;34.22;;;;;;;-3.49;100.00;94229.63;5033225;28;20091;-60
2023/03/04 05:18:04;;;;;;;90.70;33.83;;;;;;;-3.53;100.00;94228.69;5033595;28;20107;-59
2023/03/04 05:20:31;;;;;;;86.20;33.50;;;;;;;-3.55;100.00;94222.88;5033806;28;20052;-60
2023/03/04 05:22:58;;;;;;;90.27;33.10;;;;;;;-3.56;100.00;94229.31;5031111;28;20547;-61
2023/03/04 05:25:24;;;;;;;85.15;32.55;;;;;;;-3.57;100.00;94220.50;5033476;28;20421;-60
2023/03/04 05:27:51;;;;;;;84.75;33.10;;;;;;;-3.58;100.00;94226.97;5031759;28;20501;-61
2023/03/04 05:30:18;;;;;;;81.78;32.40;;;;;;;-3.61;100.00;94222.25;5033256;28;20045;-61
2023/03/04 05:32:44;;;;;;;85.53;33.38;;;;;;;-3.63;100.00;94219.88;5032794;28;20513;-59
2023/03/04 05:35:12;;;;;;;82.13;32.87;;;;;;;-3.67;100.00;94218.16;5033249;28;20073;-60
2023/03/04 05:37:39;;;;;;;84.05;33.75;;;;;;;-3.67;100.00;94223.50;5032601;28;20045;-61
2023/03/04 05:40:06;;;;;;;79.50;30.38;;;;;;;-3.69;100.00;94220.34;5031946;28;20041;-60
2023/03/04 05:42:33;;;;;;;78.85;31.60;;;;;;;-3.68;100.00;94216.56;5033073;28;20041;-61
2023/03/04 05:45:00;;;;;;;77.70;31.17;;;;;;;-3.73;100.00;94214.84;5033049;28;20051;-60
2023/03/04 05:47:26;;;;;;;79.07;30.77;;;;;;;-3.73;100.00;94222.09;5033406;28;20053;-59
2023/03/04 05:49:53;;;;;;;76.28;29.17;;;;;;;-3.75;100.00;94218.94;5032653;28;20043;-60
2023/03/04 05:52:20;;;;;;;79.78;29.77;;;;;;;-3.75;100.00;94216.25;5033170;28;20610;-60
2023/03/04 05:54:46;;;;;;;74.18;28.35;;;;;;;-3.74;100.00;94223.19;5032522;28;20049;-59
2023/03/04 05:57:13;;;;;;;75.25;29.60;;;;;;;-3.77;100.00;94224.63;5028623;28;20495;-61
2023/03/04 05:59:40;;;;;;;75.33;28.97;;;;;;;-3.78;100.00;94219.56;5012062;28;20115;-60
2023/03/04 06:02:07;;;;;;;76.13;29.95;;;;;;;-3.77;100.00;94224.63;5027531;28;20036;-59
2023/03/04 06:04:33;;;;;;;78.05;30.83;;;;;;;-3.76;100.00;94231.56;5031998;28;20044;-59
2023/03/04 06:07:00;;;;;;;74.60;29.52;;;;;;;-3.74;100.00;94225.88;5032784;28;20053;-60
2023/03/04 06:09:27;;;;;;;79.75;30.10;;;;;;;-3.74;100.00;94229.38;5032917;28;20049;-60
2023/03/04 06:11:54;;;;;;;80.37;29.43;;;;;;;-3.71;100.00;94228.72;5031963;28;20041;-59
2023/03/04 06:14:21;;;;;;;79.85;30.58;;;;;;;-3.68;100.00;94240.69;5032429;28;20037;-59
2023/03/04 06:16:48;;;;;;;79.60;31.40;;;;;;;-3.69;100.00;94236.44;5032054;28;20075;-59
2023/03/04 06:19:15;;;;;;;77.43;30.25;;;;;;;-3.68;100.00;94235.34;5032424;28;20049;-59
2023/03/04 06:21:41;;;;;;;73.15;29.27;;;;;;;-3.65;100.00;94235.50;5032099;28;20430;-59
2023/03/04 06:24:08;;;;;;;74.43;28.37;;;;;;;-3.62;100.00;94240.22;5032216;28;20318;-60
2023/03/04 06:26:35;;;;;;;79.97;29.52;;;;;;;-3.49;100.00;94243.84;5030544;28;20054;-59
2023/03/04 06:29:03;;;;;;;76.75;30.80;;;;;;;-3.39;100.00;94244.63;5032366;28;20038;-59
2023/03/04 06:31:29;;;;;;;75.05;30.38;;;;;;;-3.31;100.00;94255.31;5032297;28;20041;-59
2023/03/04 06:33:56;;;;;;;84.25;31.65;;;;;;;-3.22;100.00;94252.59;5030077;28;20668;-60
2023/03/04 06:36:23;;;;;;;80.83;30.90;;;;;;;-3.09;100.00;94253.53;5032112;28;20072;-60
2023/03/04 06:38:49;;;;;;;75.65;29.70;;;;;;;-2.98;100.00;94249.38;5032597;28;20056;-59
2023/03/04 06:41:16;;;;;;;75.60;29.42;;;;;;;-2.86;100.00;94246.03;5031974;28;20048;-60
2023/03/04 06:43:43;;;;;;;74.72;30.13;;;;;;;-2.76;100.00;94256.41;5031711;28;20055;-58
2023/03/04 06:46:09;;;;;;;77.78;31.70;;;;;;;-2.72;100.00;94240.44;5031825;28;20426;-60
2023/03/04 06:48:36;;;;;;;84.43;32.37;;;;;;;-2.71;100.00;94250.09;5031467;28;20038;-60
2023/03/04 06:51:08;;;;;;;86.25;32.47;;;;;;;-2.62;100.00;94250.81;5031671;28;20490;-60
2023/03/04 06:53:36;;;;;;;72.18;30.02;;;;;;;-2.39;100.00;94250.53;5031267;28;20429;-60
2023/03/04 06:56:03;;;;;;;79.30;30.58;;;;;;;-2.31;100.00;94260.47;5031624;28;20044;-59
2023/03/04 06:58:30;;;;;;;77.00;30.55;;;;;;;-2.04;100.00;94243.81;5031687;28;20050;-62
2023/03/04 07:00:56;;;;;;;79.03;31.17;;;;;;;-1.82;100.00;94250.00;5029573;28;20738;-59
2023/03/04 07:03:23;;;;;;;83.43;33.75;;;;;;;-1.61;100.00;94256.16;5030441;28;20052;-59
2023/03/04 07:05:50;;;;;;;81.78;34.00;;;;;;;-1.41;100.00;94253.75;5042101;28;20079;-59
2023/03/04 07:08:16;;;;;;;82.28;32.25;;;;;;;-1.22;100.00;94253.28;5016948;28;20037;-60
2023/03/04 07:10:43;;;;;;;76.25;31.77;;;;;;;-1.17;100.00;94255.75;4998268;28;20041;-60
2023/03/04 07:13:09;;;;;;;80.90;31.13;;;;;;;-1.04;100.00;94259.28;5031488;28;20506;-60
2023/03/04 07:15:37;;;;;;;86.35;31.98;;;;;;;-1.03;100.00;94261.66;5029517;28;20453;-60
2023/03/04 07:18:03;;;;;;;81.57;32.72;;;;;;;-0.72;100.00;94262.25;5031318;28;20042;-59
2023/03/04 07:20:30;;;;;;;78.47;33.42;;;;;;;-0.53;100.00;94256.31;5031116;28;20053;-59
2023/03/04 07:22:57;;;;;;;83.65;36.28;;;;;;;-0.33;100.00;94260.03;5030214;28;21814;-59
2023/03/04 07:25:24;;;;;;;72.57;32.60;;;;;;;-0.08;100.00;94264.28;5031067;28;20049;-59
2023/03/04 07:27:50;;;;;;;79.20;33.17;;;;;;;0.08;100.00;94267.06;5030308;28;20487;-60
2023/03/04 07:30:17;;;;;;;81.07;34.60;;;;;;;0.67;100.00;94267.59;5034434;28;20041;-58
2023/03/04 07:32:44;;;;;;;77.18;33.17;;;;;;;2.37;93.96;94261.31;5039850;28;20079;-59
2023/03/04 07:35:11;;;;;;;73.30;33.63;;;;;;;4.32;84.72;94258.09;5029570;28;20049;-59
2023/03/04 07:37:39;;;;;;;77.67;34.77;;;;;;;6.05;74.21;94255.28;5029097;28;20089;-60
2023/03/04 07:40:09;;;;;;;73.22;37.20;;;;;;;7.16;65.87;94249.63;5030866;28;20099;-60
2023/03/04 07:42:36;;;;;;;76.35;40.33;;;;;;;7.36;62.68;94244.63;5030407;28;20050;-60
2023/03/04 07:45:05;;;;;;;75.00;40.30;;;;;;;8.68;58.40;94235.63;5041214;28;20098;-61
2023/03/04 07:47:31;;;;;;;73.32;39.78;;;;;;;9.17;53.46;94249.53;5030200;28;20052;-59
2023/03/04 07:49:58;;;;;;;79.20;41.23;;;;;;;9.02;54.64;94250.78;5030789;28;20087;-61
2023/03/04 07:52:25;;;;;;;72.95;40.13;;;;;;;9.94;52.35;94243.19;5030746;28;20505;-60
2023/03/04 07:54:51;;;;;;;70.22;39.35;;;;;;;10.29;49.75;94239.38;5030193;28;20049;-60
2023/03/04 07:57:18;;;;;;;67.22;38.13;;;;;;;9.22;49.75;94248.34;5012758;28;20041;-61
2023/03/04 07:59:45;;;;;;;70.70;37.25;;;;;;;10.69;48.57;94245.28;5030193;28;20059;-60
2023/03/04 08:02:12;;;;;;;68.13;38.23;;;;;;;11.69;46.21;94237.00;5029227;28;20037;-62
2023/03/04 08:04:38;;;;;;;63.58;37.13;;;;;;;12.34;43.79;94229.34;5028766;28;20116;-61
2023/03/04 08:07:05;;;;;;;62.33;36.88;;;;;;;11.91;44.49;94230.03;5024481;28;20491;-60
2023/03/04 08:09:32;;;;;;;58.20;35.28;;;;;;;12.74;43.40;94234.16;5010109;28;20398;-60
2023/03/04 08:11:58;;;;;;;68.03;42.15;;;;;;;11.98;43.34;94229.13;5021846;28;20430;-62
2023/03/04 08:14:25;;;;;;;57.80;35.50;;;;;;;13.75;41.55;94232.91;5044293;28;20050;-60
2023/03/04 08:16:52;;;;;;;58.42;36.53;;;;;;;14.44;39.88;94240.38;5029845;28;20394;-61
2023/03/04 08:19:18;;;;;;;59.17;36.60;;;;;;;14.38;39.33;94229.84;5030168;28;20064;-61
2023/03/04 08:21:45;;;;;;;58.20;36.60;;;;;;;13.02;42.93;94240.28;5028408;28;20439;-61
2023/03/04 08:24:12;;;;;;;60.47;39.85;;;;;;;13.18;41.28;94240.41;5030099;28;20386;-61
2023/03/04 08:26:42;;;;;;;59.60;37.47;;;;;;;15.29;38.76;94228.28;5029676;28;20045;-63
2023/03/04 08:29:15;;;;;;;57.92;37.72;;;;;;;16.24;34.96;94236.91;5029592;28;20118;-62
2023/03/04 08:31:45;;;;;;;60.05;38.33;;;;;;;16.26;35.61;94220.63;5029550;28;20045;-61
2023/03/04 08:34:15;;;;;;;57.42;37.60;;;;;;;17.25;34.45;94228.78;5029960;28;20045;-62
2023/03/04 08:36:42;;;;;;;59.00;39.22;;;;;;;15.65;36.19;94233.53;5029607;28;20555;-62
2023/03/04 08:39:11;;;;;;;59.93;39.33;;;;;;;16.56;35.81;94235.09;5035761;28;20044;-63
2023/03/04 08:41:38;;;;;;;59.78;39.65;;;;;;;17.35;33.60;94227.63;5029267;28;20448;-63
2023/03/04 08:44:07;;;;;;;61.60;39.67;;;;;;;16.04;36.23;94234.38;5030230;28;20047;-63
2023/03/04 08:46:33;;;;;;;60.58;41.40;;;;;;;16.31;34.90;94227.59;5029640;28;20053;-62
2023/03/04 08:49:00;;;;;;;61.20;40.38;;;;;;;16.54;34.68;94230.00;5029855;28;20038;-62
2023/03/04 08:51:27;;;;;;;59.93;40.27;;;;;;;15.17;37.02;94233.34;5029875;28;20057;-62
2023/03/04 08:53:53;;;;;;;63.85;40.03;;;;;;;15.25;37.01;94231.16;5029526;28;20265;-63
2023/03/04 08:56:20;;;;;;;60.33;39.00;;;;;;;15.27;37.71;94233.47;5029302;28;20049;-62
2023/03/04 08:58:47;;;;;;;62.10;41.38;;;;;;;14.12;37.94;94231.66;5028507;28;20044;-62
2023/03/04 09:01:14;;;;;;;60.97;40.58;;;;;;;15.85;36.88;94235.38;5029090;28;20049;-62
2023/03/04 09:03:41;;;;;;;59.57;38.97;;;;;;;18.08;33.63;94229.25;5029414;28;20052;-62
2023/03/04 09:06:10;;;;;;;58.72;39.53;;;;;;;16.82;35.62;94237.81;5029684;28;20500;-62
2023/03/04 09:08:37;;;;;;;63.88;41.83;;;;;;;15.29;37.62;94234.59;5011915;28;20383;-63
2023/03/04 09:11:04;;;;;;;63.60;42.75;;;;;;;14.28;38.79;94235.63;5018475;28;20044;-63
2023/03/04 09:13:31;;;;;;;65.95;44.30;;;;;;;11.62;44.08;94237.88;5028306;28;20315;-63
2023/03/04 09:15:58;;;;;;;64.87;42.77;;;;;;;13.79;41.14;94239.13;5028719;28;21323;-62
2023/03/04 09:18:27;;;;;;;66.57;43.47;;;;;;;13.51;41.11;94233.03;5029367;28;20516;-62
2023/03/04 09:20:54;;;;;;;67.63;44.92;;;;;;;12.86;42.25;94230.78;5029093;28;20041;-63
2023/03/04 09:23:21;;;;;;;71.00;46.00;;;;;;;9.00;50.44;94235.50;5029498;28;20041;-62
2023/03/04 09:25:48;;;;;;;60.42;39.88;;;;;;;14.66;41.65;94222.06;5029033;28;20052;-62
2023/03/04 09:28:17;;;;;;;65.53;41.57;;;;;;;14.09;41.33;94224.25;5023039;28;20407;-62
2023/03/04 09:30:44;;;;;;;67.15;42.92;;;;;;;9.44;51.20;94232.56;5026199;28;20061;-62
2023/03/04 09:33:12;;;;;;;74.63;44.97;;;;;;;11.52;47.16;94228.59;5029140;28;20422;-62
2023/03/04 09:35:39;;;;;;;71.05;44.42;;;;;;;12.28;45.06;94224.72;5028750;28;20041;-63
2023/03/04 09:38:06;;;;;;;72.97;46.70;;;;;;;8.07;59.19;94232.19;5029208;28;20417;-62
2023/03/04 09:40:46;;;;;;;72.73;42.43;;;;;;;11.47;50.95;94231.81;5028698;28;20122;-62
2023/03/04 09:43:22;;;;;;;67.90;39.80;;;;;;;12.26;47.77;94224.38;5029419;28;20037;-62
2023/03/04 09:45:54;;;;;;;69.60;41.28;;;;;;;11.17;49.88;94230.63;5028884;28;20091;-62
2023/03/04 09:48:25;;;;;;;69.80;45.78;;;;;;;8.25;56.71;94230.22;5028091;28;20046;-62
2023/03/04 09:51:20;;;;;;;74.57;45.40;;;;;;;7.62;63.66;94227.09;5031595;28;20061;-61
2023/03/04 09:54:01;;;;;;;72.50;45.17;;;;;;;7.73;61.32;94227.91;5032474;28;20111;-62
2023/03/04 09:56:36;;;;;;;71.70;41.00;;;;;;;8.47;58.32;94232.94;5032834;28;20050;-63
2023/03/04 09:59:10;;;;;;;67.95;41.67;;;;;;;9.24;56.34;94224.06;5031838;28;20497;-61
2023/03/04 10:01:51;;;;;;;59.85;35.72;;;;;;;12.93;45.68;94210.56;5031388;28;20046;-61
2023/03/04 10:04:41;;;;;;;70.28;43.38;;;;;;;8.31;56.89;94212.25;5032927;28;20037;-61
2023/03/04 10:07:19;;;;;;;70.03;40.80;;;;;;;9.18;59.09;94212.75;5031955;28;20385;-60
2023/03/04 10:10:13;;;;;;;70.20;42.78;;;;;;;10.01;53.34;94223.94;5032629;28;20053;-61
2023/03/04 10:12:45;;;;;;;62.42;38.78;;;;;;;11.10;51.20;94219.72;5015941;28;20524;-61
2023/03/04 10:15:41;;;;;;;65.53;41.55;;;;;;;11.12;52.38;94214.59;5032677;28;20033;-61
2023/03/04 10:18:24;;;;;;;66.75;42.38;;;;;;;9.05;55.59;94206.94;5030120;28;20057;-60
2023/03/04 10:21:20;;;;;;;64.53;37.07;;;;;;;11.49;49.26;94210.19;5032055;28;20041;-62
2023/03/04 10:23:48;;;;;;;64.28;40.60;;;;;;;11.74;48.72;94207.06;5028079;28;20041;-61
2023/03/04 10:26:19;;;;;;;68.00;41.83;;;;;;;12.27;45.54;94199.16;5032279;28;20046;-63
2023/03/04 10:28:47;;;;;;;60.03;38.47;;;;;;;11.30;50.98;94205.34;5018678;28;20037;-62
2023/03/04 10:31:33;;;;;;;64.10;41.05;;;;;;;10.96;51.18;94204.19;5032153;28;20051;-62
2023/03/04 10:33:59;;;;;;;63.13;39.67;;;;;;;11.62;50.04;94198.63;5019794;28;20800;-63
2023/03/04 10:36:29;;;;;;;63.90;40.38;;;;;;;11.65;48.14;94200.53;5032125;28;20084;-62
2023/03/04 10:39:01;;;;;;;62.45;38.17;;;;;;;14.85;40.90;94198.28;5028719;28;20142;-62
2023/03/04 10:41:29;;;;;;;57.58;39.05;;;;;;;10.62;48.55;94201.44;5017896;28;20056;-62
2023/03/04 10:44:13;;;;;;;59.75;37.78;;;;;;;12.27;48.05;94195.66;5024368;28;20046;-62
2023/03/04 10:46:46;;;;;;;60.27;39.23;;;;;;;10.83;50.06;94203.19;5031311;28;20116;-62
2023/03/04 10:49:18;;;;;;;61.65;40.17;;;;;;;10.29;49.79;94194.72;5032132;28;20508;-62
2023/03/04 10:52:02;;;;;;;61.53;40.45;;;;;;;9.59;53.78;94185.47;5031386;28;20392;-62
2023/03/04 10:54:44;;;;;;;55.33;34.90;;;;;;;14.86;42.67;94186.00;5031787;28;20037;-62
2023/03/04 10:57:16;;;;;;;52.88;32.15;;;;;;;15.55;39.25;94184.84;5030805;28;20098;-62
2023/03/04 10:59:45;;;;;;;55.00;33.97;;;;;;;14.62;40.74;94193.00;5031195;28;20421;-62
2023/03/04 11:02:28;;;;;;;53.67;33.38;;;;;;;15.34;39.18;94195.31;5030847;28;20512;-63
2023/03/04 11:05:13;;;;;;;52.85;35.30;;;;;;;12.87;42.88;94191.00;5031154;28;20071;-62
2023/03/04 11:07:47;;;;;;;54.47;35.65;;;;;;;14.71;40.26;94193.16;5031123;28;20123;-62
2023/03/04 11:10:41;;;;;;;65.32;42.20;;;;;;;12.59;42.44;94193.09;5030140;28;20061;-62
2023/03/04 11:13:22;;;;;;;47.47;31.73;;;;;;;14.76;39.30;94185.09;5043759;28;20855;-62
2023/03/04 11:15:54;;;;;;;54.20;34.80;;;;;;;12.59;44.32;94189.56;5031275;28;20042;-62
2023/03/04 11:18:46;;;;;;;59.03;38.78;;;;;;;11.53;46.57;94190.88;5021905;28;20414;-61